Abie, Nebraska
Current Conditions -  °F | °C
As of 2:15 AM on Tuesday 27 Jan 2015 (Local Time) from KAHQ Reporting Station
Clear Clear  
Wind Chill: 25°   Ceiling: Unl
Heat Index: 31°   Visibility: 10mi
Dew Point: 27°   Wind: 6mph
Humidity: 86%   Direction: 330°NNW
Pressure: 30.07"   Gusts: NA
Location:  41.33°N, 96.95°W
Report Text: KAHQ 270815Z AUTO 33005KT 10SM CLR M01/M03 A3007 RMK AO2 T10071027
Loading
Personal Weather Stations






























Interactive Weather Map New forecast layout! Learn more

10-Day Weather Forecast

Advertisements
Track Severe Weather on mobile